Time;durP1;ratioP1;P1;durP2;ratioP2;P2;SDS_P1;SDS_P2;PMS_P1;PMS_P2;Temp;Humidity;BMP_temperature;BMP_pressure;BME280_temperature;BME280_humidity;BME280_pressure;Samples;Min_cycle;Max_cycle;Signal;HPM_P1;HPM_P2
2021/11/28 00:04:00;;;;;;;27.82;17.73;;;;;;;4.41;79.06;98277.19;2827511;83;21056;-77
2021/11/28 00:08:22;;;;;;;30.55;19.48;;;;;;;4.33;79.37;98275.73;2827319;83;21020;-76
2021/11/28 00:16:22;;;;;;;24.43;17.20;;;;;;;4.38;79.33;98268.25;2827257;83;21021;-77
2021/11/28 00:20:24;;;;;;;26.65;18.32;;;;;;;4.46;79.14;98258.83;2827414;83;20993;-74
2021/11/28 00:24:26;;;;;;;51.30;28.12;;;;;;;4.38;79.19;98262.99;2830446;84;21016;-80
2021/11/28 00:28:28;;;;;;;28.98;21.45;;;;;;;4.34;79.06;98255.49;2864379;83;21106;-79
2021/11/28 00:32:29;;;;;;;27.37;20.82;;;;;;;4.33;78.95;98258.63;2864720;83;21035;-79
2021/11/28 00:36:31;;;;;;;35.43;24.12;;;;;;;4.22;79.77;98267.94;2864592;83;20969;-76
2021/11/28 00:40:33;;;;;;;33.65;23.30;;;;;;;4.12;80.22;98287.15;2864704;83;21503;-80
2021/11/28 00:44:35;;;;;;;41.92;22.15;;;;;;;4.11;80.12;98282.04;2864758;83;21218;-78
2021/11/28 00:48:39;;;;;;;36.10;22.40;;;;;;;4.11;80.05;98287.30;2864433;83;21028;-77
2021/11/28 00:52:42;;;;;;;29.02;20.05;;;;;;;4.06;79.85;98289.01;2864682;83;21041;-78
2021/11/28 00:56:44;;;;;;;27.30;20.00;;;;;;;4.07;79.81;98289.86;2864513;82;21051;-77
2021/11/28 01:00:46;;;;;;;33.00;20.43;;;;;;;4.06;80.11;98285.06;2864515;83;21039;-77
2021/11/28 01:04:48;;;;;;;24.37;19.07;;;;;;;4.08;80.44;98282.31;2864497;82;21044;-79
2021/11/28 01:08:49;;;;;;;24.72;17.70;;;;;;;4.04;80.69;98287.50;2864412;83;21063;-80
2021/11/28 01:12:52;;;;;;;31.75;20.50;;;;;;;3.97;81.36;98293.77;2864086;83;21078;-80
2021/11/28 01:16:53;;;;;;;45.55;28.00;;;;;;;3.91;81.81;98295.13;2836040;83;20996;-79
2021/11/28 01:20:55;;;;;;;32.33;21.27;;;;;;;3.93;81.74;98289.72;2776949;85;21591;-78
2021/11/28 01:24:57;;;;;;;31.42;19.23;;;;;;;3.79;82.22;98294.39;2870328;82;21016;-80
2021/11/28 01:28:59;;;;;;;26.45;19.05;;;;;;;3.52;83.56;98292.30;2832188;84;20963;-75
2021/11/28 01:33:00;;;;;;;34.00;21.77;;;;;;;3.42;84.23;98306.70;2832081;84;20962;-77
2021/11/28 01:37:03;;;;;;;27.70;19.65;;;;;;;3.36;84.79;98316.43;2877213;82;21058;-79
2021/11/28 01:41:05;;;;;;;25.90;20.05;;;;;;;3.39;84.72;98303.03;2877328;82;21050;-79
2021/11/28 01:45:12;;;;;;;34.00;20.05;;;;;;;3.31;85.13;98287.05;2877565;82;21054;-75
2021/11/28 01:49:15;;;;;;;29.52;20.23;;;;;;;3.34;84.50;98289.41;2876193;82;21000;-78
2021/11/28 01:53:23;;;;;;;41.08;22.60;;;;;;;3.41;84.26;98295.84;2876769;82;21059;-74
2021/11/28 01:57:25;;;;;;;28.20;21.25;;;;;;;3.57;83.54;98300.63;2876811;82;21035;-77
2021/11/28 02:01:27;;;;;;;25.40;17.70;;;;;;;3.59;82.35;98299.20;2877433;82;21106;-79
2021/11/28 02:05:30;;;;;;;29.42;19.95;;;;;;;3.51;81.85;98305.92;2877699;82;21058;-79
2021/11/28 02:09:32;;;;;;;29.48;22.17;;;;;;;3.51;81.62;98312.98;2877469;82;21030;-75
2021/11/28 02:13:34;;;;;;;30.17;20.30;;;;;;;3.62;81.65;98310.77;2877507;82;21340;-78
2021/11/28 02:17:37;;;;;;;24.45;18.48;;;;;;;3.59;80.49;98311.03;2877504;82;21047;-79
2021/11/28 02:21:39;;;;;;;27.30;18.65;;;;;;;3.55;80.56;98303.41;2877758;82;21062;-78
2021/11/28 02:25:41;;;;;;;29.05;21.07;;;;;;;3.48;80.49;98308.81;2880785;82;21081;-78
2021/11/28 02:29:44;;;;;;;32.10;21.02;;;;;;;3.54;80.76;98303.05;2880183;82;21010;-79
2021/11/28 02:33:46;;;;;;;30.12;19.57;;;;;;;3.62;80.22;98310.27;2879458;82;21324;-76
2021/11/28 02:37:48;;;;;;;29.30;18.15;;;;;;;3.38;82.19;98311.88;2879851;82;21017;-75
2021/11/28 02:41:50;;;;;;;28.80;18.55;;;;;;;3.40;82.08;98309.95;2879590;82;21021;-79
2021/11/28 02:45:52;;;;;;;31.07;18.50;;;;;;;3.47;82.15;98310.27;2879340;82;21049;-80
2021/11/28 02:49:54;;;;;;;30.20;19.57;;;;;;;3.53;81.60;98316.32;2879590;82;21049;-77
2021/11/28 02:53:56;;;;;;;30.23;20.52;;;;;;;3.34;82.25;98317.02;2866869;83;21057;-75
2021/11/28 02:57:58;;;;;;;24.60;16.95;;;;;;;3.11;83.66;98313.19;2867034;83;20999;-77
2021/11/28 03:02:00;;;;;;;25.20;18.62;;;;;;;3.02;83.24;98319.22;2866932;83;21017;-78
2021/11/28 03:06:02;;;;;;;27.98;17.77;;;;;;;2.84;83.74;98330.27;2866839;83;21022;-77
2021/11/28 03:10:06;;;;;;;26.17;18.70;;;;;;;2.89;84.16;98324.16;2867466;83;21010;-79
2021/11/28 03:14:07;;;;;;;33.30;18.52;;;;;;;2.95;84.71;98322.36;2867270;82;21077;-77
2021/11/28 03:18:15;;;;;;;28.67;18.77;;;;;;;3.10;84.58;98308.44;2866935;83;20994;-78
2021/11/28 03:22:17;;;;;;;22.48;17.65;;;;;;;3.23;84.45;98299.52;2866240;82;21110;-79
2021/11/28 03:26:38;;;;;;;27.62;20.25;;;;;;;3.35;84.00;98303.76;2864172;83;21040;-74
2021/11/28 03:30:39;;;;;;;27.62;16.70;;;;;;;3.42;83.86;98297.51;2864352;82;20981;-79
2021/11/28 03:34:41;;;;;;;23.77;16.97;;;;;;;3.48;83.56;98296.98;2830907;84;21017;-79
2021/11/28 03:38:43;;;;;;;32.48;19.95;;;;;;;3.54;83.15;98292.54;2877031;82;21027;-79
2021/11/28 03:42:45;;;;;;;28.77;20.50;;;;;;;3.47;83.27;98294.50;2876565;82;21050;-77
2021/11/28 03:46:47;;;;;;;20.97;16.00;;;;;;;3.31;83.43;98289.68;2876306;82;21113;-77
2021/11/28 03:50:49;;;;;;;26.57;17.48;;;;;;;3.23;83.21;98291.63;2876573;82;21049;-74
2021/11/28 03:54:51;;;;;;;29.45;20.35;;;;;;;3.20;83.58;98283.55;2876411;82;21023;-76
2021/11/28 03:58:53;;;;;;;27.13;18.30;;;;;;;3.25;83.46;98283.17;2876284;82;21087;-79
2021/11/28 04:02:55;;;;;;;28.60;19.45;;;;;;;3.25;83.59;98293.67;2876460;82;21060;-77
2021/11/28 04:06:57;;;;;;;27.00;17.32;;;;;;;3.21;84.00;98304.91;2875794;82;21024;-77
2021/11/28 04:10:59;;;;;;;27.80;18.75;;;;;;;3.27;84.05;98310.97;2876365;82;21054;-76
2021/11/28 04:15:01;;;;;;;27.73;16.52;;;;;;;3.27;84.19;98304.89;2877936;82;21043;-70
2021/11/28 04:19:03;;;;;;;27.52;17.98;;;;;;;3.37;84.28;98306.27;2878238;82;21118;-75
2021/11/28 04:23:05;;;;;;;24.98;17.67;;;;;;;3.45;84.10;98309.08;2877826;82;20998;-78
2021/11/28 04:27:07;;;;;;;23.42;15.90;;;;;;;3.51;83.86;98288.02;2867014;83;21061;-79
2021/11/28 04:31:08;;;;;;;28.67;17.65;;;;;;;3.58;83.42;98282.58;2867040;83;21041;-78
2021/11/28 04:35:11;;;;;;;31.17;19.23;;;;;;;3.63;83.15;98283.50;2867480;83;21057;-70
2021/11/28 04:39:13;;;;;;;28.90;17.20;;;;;;;3.60;82.96;98277.20;2867445;83;20982;-78
2021/11/28 04:43:14;;;;;;;26.57;17.77;;;;;;;3.49;83.22;98281.56;2867206;82;21114;-77
2021/11/28 04:47:18;;;;;;;26.07;17.73;;;;;;;3.33;83.23;98280.72;2867628;83;21045;-79
2021/11/28 04:51:20;;;;;;;27.32;19.55;;;;;;;3.34;83.29;98288.10;2867360;83;21550;-77
2021/11/28 04:55:22;;;;;;;25.88;18.32;;;;;;;3.22;83.68;98303.10;2867300;83;21025;-71
2021/11/28 04:59:24;;;;;;;25.12;17.25;;;;;;;3.24;83.73;98305.12;2867728;82;21030;-77
2021/11/28 05:03:26;;;;;;;26.57;18.75;;;;;;;3.34;83.99;98320.48;2867270;82;21049;-77
2021/11/28 05:07:28;;;;;;;27.02;19.32;;;;;;;3.48;83.78;98327.70;2867633;82;21239;-77
2021/11/28 05:11:30;;;;;;;22.13;16.93;;;;;;;3.59;83.47;98336.83;2867475;83;21672;-78
2021/11/28 05:15:31;;;;;;;24.07;15.78;;;;;;;3.71;83.55;98329.22;2867367;83;21006;-77
2021/11/28 05:19:33;;;;;;;26.37;16.62;;;;;;;3.86;82.84;98344.17;2867619;83;21049;-78
2021/11/28 05:23:35;;;;;;;30.55;19.30;;;;;;;3.88;81.99;98344.05;2866456;83;21067;-77
2021/11/28 05:27:37;;;;;;;26.93;19.17;;;;;;;3.83;81.72;98342.28;2864884;83;21047;-77
2021/11/28 05:31:39;;;;;;;28.95;17.90;;;;;;;3.86;82.23;98337.59;2865140;83;21079;-78
2021/11/28 05:35:40;;;;;;;24.00;17.70;;;;;;;3.94;81.62;98345.34;2865112;83;21047;-70
2021/11/28 05:39:44;;;;;;;25.48;16.50;;;;;;;3.96;81.29;98346.03;2865233;83;21071;-78
2021/11/28 05:43:47;;;;;;;33.58;19.55;;;;;;;3.95;80.70;98340.42;2865124;83;21053;-77
2021/11/28 05:47:50;;;;;;;34.50;16.52;;;;;;;3.75;81.10;98333.75;2864598;83;21102;-77
2021/11/28 05:51:51;;;;;;;31.95;19.98;;;;;;;3.61;81.57;98334.08;2864503;82;21055;-80
2021/11/28 05:55:54;;;;;;;27.10;19.67;;;;;;;3.51;81.85;98334.84;2864704;82;20981;-77
2021/11/28 05:59:56;;;;;;;25.00;18.42;;;;;;;3.62;82.39;98348.39;2831665;84;21061;-77
2021/11/28 06:03:57;;;;;;;27.85;19.52;;;;;;;3.73;81.77;98344.86;2876627;82;21046;-77
2021/11/28 06:07:59;;;;;;;28.98;20.37;;;;;;;3.80;81.61;98344.70;2876658;82;21066;-80
2021/11/28 06:12:02;;;;;;;24.07;17.27;;;;;;;3.90;81.65;98342.59;2876650;82;21039;-78
2021/11/28 06:16:05;;;;;;;27.22;20.17;;;;;;;4.00;81.15;98334.28;2876576;82;21610;-77
2021/11/28 06:20:09;;;;;;;22.77;18.75;;;;;;;4.09;81.06;98332.66;2876767;82;21055;-78
2021/11/28 06:24:11;;;;;;;29.45;18.65;;;;;;;4.20;80.82;98340.94;2870284;82;21042;-77
2021/11/28 06:28:13;;;;;;;35.35;23.05;;;;;;;4.30;80.14;98328.62;2862283;83;21046;-81
2021/11/28 06:32:16;;;;;;;29.00;20.70;;;;;;;4.28;79.22;98325.30;2862203;83;21029;-78
2021/11/28 06:36:18;;;;;;;30.77;20.95;;;;;;;4.20;79.18;98342.25;2862091;83;21018;-79
2021/11/28 06:40:21;;;;;;;22.82;17.75;;;;;;;4.13;79.42;98347.20;2817205;84;29801;-80
2021/11/28 06:44:22;;;;;;;25.90;18.42;;;;;;;4.03;79.37;98349.80;2817018;83;21065;-75
2021/11/28 06:48:24;;;;;;;33.67;21.68;;;;;;;4.01;79.39;98354.36;2817470;84;21100;-80
2021/11/28 06:52:26;;;;;;;33.90;21.02;;;;;;;3.92;79.53;98354.66;2817161;84;21053;-80
2021/11/28 06:56:28;;;;;;;39.90;22.27;;;;;;;3.87;79.96;98366.06;2817423;84;21299;-79
2021/11/28 07:00:29;;;;;;;25.77;18.17;;;;;;;3.79;80.10;98360.60;2817326;83;21076;-78
2021/11/28 07:04:32;;;;;;;32.03;19.40;;;;;;;3.73;80.39;98348.80;2817591;84;21068;-80
2021/11/28 07:08:33;;;;;;;32.00;22.90;;;;;;;3.77;80.79;98342.34;2817516;84;21017;-79
2021/11/28 07:12:35;;;;;;;40.38;27.65;;;;;;;3.80;80.36;98346.02;2817609;83;20989;-79
2021/11/28 07:16:37;;;;;;;42.93;29.02;;;;;;;3.82;80.40;98361.19;2817389;84;21016;-79
2021/11/28 07:20:39;;;;;;;42.00;25.95;;;;;;;3.84;80.63;98350.55;2817509;84;21036;-78
2021/11/28 07:24:40;;;;;;;38.95;26.95;;;;;;;3.86;80.67;98351.25;2821218;84;21076;-80
2021/11/28 07:28:43;;;;;;;34.75;24.72;;;;;;;3.75;81.00;98367.94;2825906;84;21080;-75
2021/11/28 07:32:44;;;;;;;48.30;35.13;;;;;;;3.60;81.18;98378.42;2798043;84;21052;-75
2021/11/28 07:36:46;;;;;;;44.08;27.32;;;;;;;3.64;82.06;98378.52;2825773;84;21029;-75
2021/11/28 07:40:48;;;;;;;39.95;28.02;;;;;;;3.80;82.26;98380.21;2825816;84;21329;-75
2021/11/28 07:44:50;;;;;;;49.45;34.15;;;;;;;3.88;81.27;98387.46;2862136;83;21055;-78
2021/11/28 07:48:52;;;;;;;35.65;26.60;;;;;;;3.91;81.45;98393.77;2868184;82;21024;-78
2021/11/28 07:52:53;;;;;;;44.67;27.13;;;;;;;3.82;80.70;98388.80;2868377;82;21088;-78
2021/11/28 07:56:55;;;;;;;35.80;22.93;;;;;;;3.81;81.18;98391.55;2868201;83;21058;-78
2021/11/28 08:00:56;;;;;;;36.80;24.52;;;;;;;3.75;81.14;98381.09;2868028;83;21019;-77
2021/11/28 08:04:58;;;;;;;37.38;23.87;;;;;;;3.80;81.70;98375.42;2868920;83;21087;-74
2021/11/28 08:09:00;;;;;;;30.40;19.42;;;;;;;3.88;82.02;98371.67;2837111;83;21517;-77
2021/11/28 08:13:01;;;;;;;32.88;22.85;;;;;;;3.86;81.62;98375.73;2823814;84;21037;-79
2021/11/28 08:17:03;;;;;;;35.38;23.20;;;;;;;3.90;82.23;98380.73;2823443;83;21076;-78
2021/11/28 08:21:05;;;;;;;32.60;21.60;;;;;;;4.07;82.72;98381.45;2823420;84;21048;-78
2021/11/28 08:25:10;;;;;;;39.55;28.57;;;;;;;4.18;82.24;98376.58;2823641;84;21112;-77
2021/11/28 08:29:12;;;;;;;61.53;38.90;;;;;;;4.20;81.91;98377.78;2824140;84;21076;-78
2021/11/28 08:33:14;;;;;;;73.00;43.48;;;;;;;4.18;82.07;98371.81;2823749;83;21406;-73
2021/11/28 08:37:15;;;;;;;67.50;43.48;;;;;;;4.18;81.92;98373.13;2844769;83;21045;-78
2021/11/28 08:41:21;;;;;;;59.50;35.80;;;;;;;4.12;82.10;98378.44;2844403;83;21018;-78
2021/11/28 08:45:22;;;;;;;112.75;64.05;;;;;;;4.07;82.10;98389.34;2843819;83;21090;-79
2021/11/28 08:49:23;;;;;;;70.70;40.48;;;;;;;4.12;82.43;98388.46;2844971;83;21074;-79
2021/11/28 08:53:26;;;;;;;51.10;32.33;;;;;;;4.08;82.39;98392.83;2847184;82;21075;-76
2021/11/28 08:57:28;;;;;;;40.33;27.52;;;;;;;4.04;82.24;98394.88;2864729;83;21099;-76
2021/11/28 09:01:29;;;;;;;44.95;30.52;;;;;;;4.00;82.28;98389.03;2823373;82;21070;-72
2021/11/28 09:05:31;;;;;;;192.80;101.27;;;;;;;4.02;82.63;98402.06;2773997;84;21077;-76
2021/11/28 09:09:34;;;;;;;131.35;79.03;;;;;;;3.99;83.21;98412.36;2864888;83;21040;-75
2021/11/28 09:13:37;;;;;;;55.25;37.30;;;;;;;4.03;83.71;98403.73;2864648;83;21075;-74
2021/11/28 09:17:44;;;;;;;39.73;26.15;;;;;;;4.12;83.75;98378.44;2865034;83;21592;-75
2021/11/28 09:21:44;;;;;;;55.12;31.85;;;;;;;4.20;83.70;98393.56;2864465;83;21005;-75
2021/11/28 09:25:45;;;;;;;68.42;35.65;;;;;;;4.24;83.57;98402.86;2820985;82;21024;-76
2021/11/28 09:29:47;;;;;;;75.30;43.48;;;;;;;4.32;84.07;98397.76;2820395;84;21069;-74
2021/11/28 09:33:49;;;;;;;52.85;34.58;;;;;;;4.39;83.51;98385.75;2819715;84;21074;-77
2021/11/28 09:37:53;;;;;;;75.35;50.43;;;;;;;4.50;82.82;98368.17;2770157;86;21367;-77
2021/11/28 09:42:06;;;;;;;74.05;51.02;;;;;;;4.61;82.48;98364.13;2810740;84;22185;-76
2021/11/28 09:46:09;;;;;;;72.72;47.10;;;;;;;4.67;82.08;98357.48;2810283;84;21002;-75
2021/11/28 09:50:12;;;;;;;72.03;47.30;;;;;;;4.68;82.31;98361.29;2811501;84;21049;-73
2021/11/28 09:54:16;;;;;;;59.65;37.50;;;;;;;4.72;82.36;98356.59;2812695;84;21090;-74
2021/11/28 09:58:18;;;;;;;68.00;37.48;;;;;;;4.74;82.24;98359.10;2812623;84;21068;-75
2021/11/28 10:02:24;;;;;;;50.50;34.88;;;;;;;4.77;82.40;98360.96;2767723;84;21010;-73
2021/11/28 10:06:28;;;;;;;71.50;46.37;;;;;;;4.76;82.11;98350.08;2775563;85;21070;-75
2021/11/28 10:10:30;;;;;;;54.83;37.25;;;;;;;4.74;81.76;98345.94;2767817;86;21046;-75
2021/11/28 10:14:33;;;;;;;54.88;33.33;;;;;;;4.67;81.88;98336.42;2822809;84;21002;-76
2021/11/28 10:18:36;;;;;;;49.08;34.35;;;;;;;4.56;82.10;98333.42;2833801;83;21070;-78
2021/11/28 10:22:38;;;;;;;70.78;44.15;;;;;;;4.48;83.73;98344.63;2839939;83;21100;-73
2021/11/28 10:27:05;;;;;;;65.37;41.55;;;;;;;4.47;84.08;98334.22;2822188;84;21048;-77
2021/11/28 10:31:08;;;;;;;62.95;40.23;;;;;;;4.59;84.20;98334.46;2821252;84;22148;-77
2021/11/28 10:35:11;;;;;;;57.40;37.05;;;;;;;4.66;84.17;98339.52;2795535;84;21091;-74
2021/11/28 10:39:18;;;;;;;114.65;71.07;;;;;;;4.61;84.81;98347.01;2823303;84;20980;-70
2021/11/28 10:43:20;;;;;;;72.92;47.67;;;;;;;4.69;84.77;98341.88;2823286;84;21100;-72
2021/11/28 10:47:27;;;;;;;202.22;106.58;;;;;;;4.75;84.76;98336.56;2817314;84;21069;-73
2021/11/28 10:51:28;;;;;;;584.08;360.68;;;;;;;4.80;84.63;98342.24;2769492;86;21074;-75
2021/11/28 10:55:40;;;;;;;165.10;95.80;;;;;;;4.94;84.41;98338.87;2788873;83;21074;-74
2021/11/28 10:59:47;;;;;;;173.40;101.18;;;;;;;4.99;84.00;98343.23;2822688;84;21049;-74
2021/11/28 11:03:49;;;;;;;124.92;72.37;;;;;;;5.00;84.36;98342.26;2772926;86;21109;-75
2021/11/28 11:07:54;;;;;;;64.17;41.98;;;;;;;5.07;84.60;98341.23;2757420;86;21110;-70
2021/11/28 11:11:55;;;;;;;55.52;37.93;;;;;;;5.15;84.65;98346.16;2823346;81;21031;-77
2021/11/28 11:15:57;;;;;;;55.23;36.35;;;;;;;5.33;84.83;98339.37;2823316;84;21040;-72
2021/11/28 11:20:00;;;;;;;49.53;31.07;;;;;;;5.32;83.96;98334.56;2823590;84;21114;-77
2021/11/28 11:24:02;;;;;;;44.73;28.80;;;;;;;5.24;84.18;98324.72;2823815;81;21053;-74
2021/11/28 11:28:10;;;;;;;49.50;31.57;;;;;;;5.30;83.87;98324.65;2827371;84;21066;-74
2021/11/28 11:32:14;;;;;;;45.35;31.75;;;;;;;5.40;83.88;98320.68;2826901;84;21053;-72
2021/11/28 11:36:16;;;;;;;36.83;25.92;;;;;;;5.28;83.60;98311.59;2826428;84;21068;-72
2021/11/28 11:40:21;;;;;;;45.75;30.45;;;;;;;5.29;83.19;98304.53;2826566;84;21010;-73
2021/11/28 11:44:25;;;;;;;39.08;27.93;;;;;;;5.26;83.69;98303.00;2827205;84;21038;-76
2021/11/28 11:48:27;;;;;;;56.33;35.17;;;;;;;5.25;83.35;98294.75;2828003;82;21068;-77
2021/11/28 11:52:28;;;;;;;48.00;29.18;;;;;;;5.15;83.91;98284.21;2848796;83;20999;-75
2021/11/28 11:56:32;;;;;;;42.90;26.12;;;;;;;4.98;83.80;98283.12;2828184;84;21076;-76
2021/11/28 12:01:04;;;;;;;47.67;30.72;;;;;;;4.89;83.69;98278.67;2872878;82;21081;-76
2021/11/28 12:05:31;;;;;;;38.80;27.25;;;;;;;4.78;84.54;98270.92;2920121;81;21018;-76
2021/11/28 12:09:35;;;;;;;47.80;31.60;;;;;;;4.63;85.39;98273.96;2920152;81;20993;-78
2021/11/28 12:13:47;;;;;;;37.65;24.95;;;;;;;4.71;85.54;98280.67;2919863;81;21084;-73
2021/11/28 12:17:52;;;;;;;39.88;24.80;;;;;;;4.73;84.87;98274.47;2902330;81;21638;-73
2021/11/28 12:21:53;;;;;;;38.90;25.82;;;;;;;4.64;85.06;98278.26;2868963;83;21081;-72
2021/11/28 12:25:55;;;;;;;50.78;26.23;;;;;;;4.43;85.44;98279.20;2860713;82;21045;-72
2021/11/28 12:29:57;;;;;;;73.85;47.53;;;;;;;4.32;86.12;98288.52;2868247;82;21044;-76
2021/11/28 12:34:05;;;;;;;117.82;64.65;;;;;;;4.21;86.50;98284.70;2839309;83;20971;-72
2021/11/28 12:38:07;;;;;;;81.90;46.02;;;;;;;4.13;87.18;98292.79;2842660;83;21033;-74
2021/11/28 12:42:13;;;;;;;57.33;43.85;;;;;;;4.14;87.17;98293.61;2837363;83;20990;-72
2021/11/28 12:46:43;;;;;;;55.30;36.53;;;;;;;4.05;87.45;98293.92;2837066;82;21069;-71
2021/11/28 12:51:03;;;;;;;44.05;27.22;;;;;;;4.08;87.34;98280.50;2780784;84;20998;-74
2021/11/28 12:55:12;;;;;;;37.05;24.07;;;;;;;3.97;87.53;98278.80;2865175;82;20982;-73
2021/11/28 12:59:16;;;;;;;34.30;24.20;;;;;;;3.79;88.32;98277.29;2865175;82;21050;-71
2021/11/28 13:03:23;;;;;;;40.33;25.85;;;;;;;3.62;88.91;98281.84;2865285;83;21045;-71
2021/11/28 13:07:29;;;;;;;48.85;34.53;;;;;;;3.54;89.19;98282.03;2864883;83;21081;-71
2021/11/28 13:11:33;;;;;;;48.60;29.23;;;;;;;3.43;89.95;98291.28;2864828;82;21057;-78
2021/11/28 13:15:39;;;;;;;40.60;29.50;;;;;;;3.47;89.59;98305.02;2856966;83;21030;-76
2021/11/28 13:19:46;;;;;;;50.73;32.80;;;;;;;3.47;89.37;98297.12;2827723;83;21069;-72
2021/11/28 13:23:51;;;;;;;49.23;28.27;;;;;;;3.22;90.38;98285.56;2872868;82;20987;-73
2021/11/28 13:28:06;;;;;;;57.85;35.60;;;;;;;3.14;90.58;98273.52;2915927;81;21057;-73
2021/11/28 13:32:14;;;;;;;169.97;85.40;;;;;;;3.06;91.11;98272.88;2879926;81;21032;-72
2021/11/28 13:36:16;;;;;;;172.30;88.90;;;;;;;3.00;91.37;98282.09;2827533;84;21018;-70
2021/11/28 13:40:17;;;;;;;198.47;100.87;;;;;;;3.00;91.57;98293.91;2827216;84;21061;-71
2021/11/28 13:44:28;;;;;;;121.17;72.67;;;;;;;3.04;91.49;98293.16;2793414;84;20986;-71
2021/11/28 13:48:52;;;;;;;59.60;36.42;;;;;;;3.06;91.17;98290.41;2826099;84;21316;-72
2021/11/28 13:53:15;;;;;;;55.25;33.75;;;;;;;3.11;91.16;98283.83;2826286;82;21014;-71
2021/11/28 13:57:24;;;;;;;43.98;28.50;;;;;;;3.10;91.06;98279.53;2853123;82;21472;-71
2021/11/28 14:01:26;;;;;;;37.93;25.70;;;;;;;3.00;91.61;98273.36;2891829;81;21088;-72
2021/11/28 14:05:28;;;;;;;33.98;26.37;;;;;;;2.93;91.91;98270.41;2826577;84;21022;-72
2021/11/28 14:09:29;;;;;;;33.63;23.18;;;;;;;2.84;92.30;98268.05;2855327;82;22336;-71
2021/11/28 14:13:31;;;;;;;30.60;21.25;;;;;;;2.82;92.62;98266.53;2890248;81;21036;-73
2021/11/28 14:17:33;;;;;;;42.58;26.37;;;;;;;2.77;93.04;98273.97;2826846;84;21106;-71
2021/11/28 14:21:38;;;;;;;40.00;27.17;;;;;;;2.65;93.65;98272.68;2798804;84;21042;-73
2021/11/28 14:25:45;;;;;;;58.48;35.30;;;;;;;2.73;93.60;98280.41;2824208;84;21034;-71
2021/11/28 14:30:02;;;;;;;41.60;26.02;;;;;;;2.65;94.22;98292.38;2817556;83;21109;-72
2021/11/28 14:34:05;;;;;;;44.98;33.53;;;;;;;2.65;94.25;98300.25;2817577;82;21024;-72
2021/11/28 14:38:15;;;;;;;51.75;32.10;;;;;;;2.61;94.54;98303.23;2848749;83;20943;-70
2021/11/28 14:42:19;;;;;;;45.38;27.65;;;;;;;2.71;94.02;98297.61;2818082;83;20995;-69
2021/11/28 14:46:29;;;;;;;70.90;40.85;;;;;;;2.71;93.91;98297.61;2813520;83;21077;-73
2021/11/28 14:50:35;;;;;;;115.12;59.55;;;;;;;2.67;94.20;98300.14;2798720;84;21066;-70
2021/11/28 14:54:37;;;;;;;45.38;29.65;;;;;;;2.65;94.17;98293.69;2797237;84;21038;-72
2021/11/28 14:58:43;;;;;;;40.55;26.77;;;;;;;2.67;94.14;98289.14;2799382;85;21063;-69
2021/11/28 15:02:44;;;;;;;47.08;30.25;;;;;;;2.69;94.15;98285.09;2799195;84;21082;-71
2021/11/28 15:07:03;;;;;;;42.83;28.85;;;;;;;2.65;94.29;98286.27;2798768;85;21007;-70
2021/11/28 15:11:04;;;;;;;35.08;23.47;;;;;;;2.77;93.69;98296.28;2799099;84;21042;-71
2021/11/28 15:15:10;;;;;;;37.53;27.02;;;;;;;2.71;93.78;98302.37;2798928;84;21023;-69
2021/11/28 15:19:19;;;;;;;34.75;24.57;;;;;;;2.81;93.49;98297.20;2799588;84;21062;-70
2021/11/28 15:23:22;;;;;;;97.78;59.35;;;;;;;2.77;93.65;98298.41;2798919;84;21086;-69
2021/11/28 15:27:23;;;;;;;122.75;70.50;;;;;;;2.69;94.07;98294.28;2827789;81;21012;-70
2021/11/28 15:31:27;;;;;;;95.30;56.28;;;;;;;2.73;93.99;98280.41;2819876;84;20972;-70
2021/11/28 15:35:29;;;;;;;62.67;41.15;;;;;;;2.75;93.87;98271.91;2868466;82;21033;-70
2021/11/28 15:39:31;;;;;;;93.00;55.95;;;;;;;2.78;94.02;98272.51;2829116;83;21104;-70
2021/11/28 15:43:32;;;;;;;85.90;52.45;;;;;;;2.81;93.94;98267.00;2863630;83;21070;-68
2021/11/28 15:47:34;;;;;;;70.00;45.78;;;;;;;2.82;93.89;98255.53;2885591;81;21118;-69
2021/11/28 15:51:36;;;;;;;44.75;29.75;;;;;;;2.73;94.38;98256.31;2826287;84;21027;-70
2021/11/28 15:55:39;;;;;;;32.20;22.62;;;;;;;2.71;94.49;98265.61;2855292;82;21053;-68
2021/11/28 15:59:41;;;;;;;33.13;20.85;;;;;;;2.66;94.71;98270.41;2887760;81;20974;-69
2021/11/28 16:03:43;;;;;;;26.55;18.27;;;;;;;2.64;94.86;98272.33;2905168;81;21765;-70
2021/11/28 16:07:45;;;;;;;34.70;23.10;;;;;;;2.65;94.94;98280.56;2918500;81;21052;-71
2021/11/28 16:11:47;;;;;;;41.28;24.07;;;;;;;2.64;94.83;98292.02;2918564;81;21044;-68
2021/11/28 16:15:51;;;;;;;46.05;27.05;;;;;;;2.64;94.99;98286.77;2907188;81;21065;-70
2021/11/28 16:19:52;;;;;;;39.67;26.60;;;;;;;2.64;94.99;98290.70;2868328;81;21371;-70
2021/11/28 16:23:55;;;;;;;60.58;39.15;;;;;;;2.73;94.73;98288.28;2891092;81;21021;-70
2021/11/28 16:27:57;;;;;;;59.08;33.45;;;;;;;2.67;94.99;98284.38;2878595;81;20981;-70
2021/11/28 16:31:59;;;;;;;43.33;30.00;;;;;;;2.73;94.72;98292.22;2893817;82;20969;-70
2021/11/28 16:36:00;;;;;;;61.70;42.73;;;;;;;2.74;94.67;98303.92;2866661;82;21028;-70
2021/11/28 16:40:07;;;;;;;59.95;39.08;;;;;;;2.75;94.63;98299.48;2832353;84;21024;-69
2021/11/28 16:44:11;;;;;;;43.00;27.45;;;;;;;2.78;94.24;98305.33;2876245;82;21085;-69
2021/11/28 16:48:18;;;;;;;43.80;24.65;;;;;;;2.83;94.20;98315.47;2884475;82;21061;-69
2021/11/28 16:52:20;;;;;;;42.50;24.35;;;;;;;2.87;93.86;98322.13;2878933;80;20978;-70
2021/11/28 16:56:24;;;;;;;42.38;25.90;;;;;;;2.91;93.71;98314.84;2908047;80;21041;-70
2021/11/28 17:00:26;;;;;;;43.23;27.45;;;;;;;2.85;94.02;98304.36;2907955;82;21078;-70
2021/11/28 17:04:27;;;;;;;33.70;28.45;;;;;;;2.87;94.01;98298.50;2907652;82;21065;-70
2021/11/28 17:08:29;;;;;;;33.48;20.48;;;;;;;2.91;93.77;98299.09;2907298;82;21022;-70
2021/11/28 17:12:31;;;;;;;29.32;20.57;;;;;;;3.00;93.46;98299.16;2907127;82;21036;-70
2021/11/28 17:16:33;;;;;;;22.82;15.18;;;;;;;3.01;93.25;98302.61;2905734;82;21036;-70
2021/11/28 17:20:38;;;;;;;17.50;11.00;;;;;;;2.90;93.47;98307.44;2881266;82;21028;-69
2021/11/28 17:24:41;;;;;;;27.75;14.33;;;;;;;2.87;93.60;98315.56;2869881;83;21084;-69
2021/11/28 17:28:43;;;;;;;25.62;15.13;;;;;;;2.80;93.96;98312.60;2878624;81;21076;-70
2021/11/28 17:32:45;;;;;;;26.30;17.12;;;;;;;2.85;93.93;98310.92;2881093;82;20989;-70
2021/11/28 17:36:46;;;;;;;26.00;16.65;;;;;;;3.03;93.65;98318.26;2831249;84;21129;-69
2021/11/28 17:40:49;;;;;;;25.88;17.52;;;;;;;3.11;92.98;98316.66;2785131;84;21684;-69
2021/11/28 17:44:50;;;;;;;25.92;15.68;;;;;;;2.96;92.87;98309.58;2904955;81;20993;-69
2021/11/28 17:48:52;;;;;;;22.73;15.18;;;;;;;3.04;92.64;98299.72;2902193;81;21019;-70
2021/11/28 17:52:54;;;;;;;28.35;18.10;;;;;;;3.00;92.77;98291.28;2906671;82;21015;-69
2021/11/28 17:56:55;;;;;;;32.45;20.08;;;;;;;2.92;93.10;98293.69;2916898;81;21041;-69
2021/11/28 18:00:58;;;;;;;24.27;17.75;;;;;;;2.93;93.41;98297.98;2928199;81;21009;-69
2021/11/28 18:05:00;;;;;;;25.50;15.45;;;;;;;3.03;93.21;98302.50;2927968;81;21075;-69
2021/11/28 18:09:03;;;;;;;25.72;17.17;;;;;;;2.95;93.24;98304.44;2927944;81;21328;-69
2021/11/28 18:13:05;;;;;;;33.60;21.27;;;;;;;2.97;93.16;98309.08;2928002;80;21029;-69
2021/11/28 18:17:07;;;;;;;40.05;25.57;;;;;;;3.00;93.06;98307.05;2920194;81;21083;-69
2021/11/28 18:21:08;;;;;;;34.20;24.92;;;;;;;2.89;93.32;98301.83;2880910;82;21039;-69
2021/11/28 18:25:11;;;;;;;32.35;21.02;;;;;;;2.94;93.39;98300.96;2880671;82;21031;-69
2021/11/28 18:29:13;;;;;;;25.43;18.87;;;;;;;2.95;93.51;98306.59;2832730;82;20995;-69
2021/11/28 18:33:15;;;;;;;32.35;19.90;;;;;;;3.07;93.30;98311.78;2826283;84;21017;-69
2021/11/28 18:37:16;;;;;;;30.05;18.52;;;;;;;3.12;93.03;98317.02;2826409;84;21434;-70
2021/11/28 18:45:32;;;;;;;38.78;23.18;;;;;;;3.22;92.67;98314.47;3040940;77;22909;-69
2021/11/28 18:49:34;;;;;;;35.95;24.63;;;;;;;3.14;92.47;98311.16;2957729;80;21566;-69
2021/11/28 18:53:36;;;;;;;28.55;21.85;;;;;;;3.00;93.20;98314.92;2953073;80;20998;-69
2021/11/28 18:57:41;;;;;;;36.28;22.20;;;;;;;2.92;93.65;98317.33;2953532;80;21097;-70
2021/11/28 19:01:43;;;;;;;29.52;20.62;;;;;;;2.91;93.92;98316.16;2968266;80;21034;-70